PPCOA SBSL-SBBE
Flight info
| Callsign | PPCOA |
|---|---|
| Flight time | 0h 45m |
| Altitude | 38000 |
| Route | SAVIO DCT LIVED |
| Aircraft | CL60/M-SBDE1E2E3FGHIJ4J5J7M3RWXYZ/LB1V1D1 |
Departure
| Time | 2026-04-21 00:38 |
|---|---|
| Airport | Marechal Cunha Machado International Airport (SBSL) |
Arrival
| Time | 2026-04-21 01:24 |
|---|---|
| Airport | Val de Cans/Júlio Cezar Ribeiro International Airport (SBBE) |
| Time | Latitude | Longitude | Altitude | Speed | Heading |
|---|---|---|---|---|---|
| 2026-04-21 00:23 | -2.58362 | -44.23453 | 183 ft | 0 kts | 95° |
| 2026-04-21 00:36 | -2.58370 | -44.23447 | 183 ft | 4 kts | 160° |
| 2026-04-21 00:36 | -2.58375 | -44.23463 | 183 ft | 8 kts | 279° |
| 2026-04-21 00:37 | -2.58419 | -44.23470 | 183 ft | 6 kts | 132° |
| 2026-04-21 00:37 | -2.58453 | -44.23432 | 183 ft | 7 kts | 130° |
| 2026-04-21 00:37 | -2.58491 | -44.23382 | 183 ft | 7 kts | 137° |
| 2026-04-21 00:37 | -2.58522 | -44.23387 | 183 ft | 2 kts | 225° |
| 2026-04-21 00:38 | -2.58550 | -44.23411 | 183 ft | 11 kts | 218° |
| 2026-04-21 00:38 | -2.58880 | -44.23676 | 183 ft | 114 kts | 219° |
| 2026-04-21 00:38 | -2.59722 | -44.24368 | 416 ft | 180 kts | 219° |
| 2026-04-21 00:38 | -2.60667 | -44.25223 | 1333 ft | 201 kts | 223° |
| 2026-04-21 00:39 | -2.61766 | -44.26263 | 2080 ft | 233 kts | 226° |
| 2026-04-21 00:39 | -2.62598 | -44.27685 | 2996 ft | 249 kts | 250° |
| 2026-04-21 00:39 | -2.62964 | -44.29442 | 3884 ft | 278 kts | 267° |
| 2026-04-21 00:39 | -2.62757 | -44.31418 | 4902 ft | 299 kts | 280° |
| 2026-04-21 00:40 | -2.62394 | -44.33497 | 6205 ft | 310 kts | 279° |
| 2026-04-21 00:40 | -2.62034 | -44.35608 | 7548 ft | 316 kts | 279° |
| 2026-04-21 00:40 | -2.61666 | -44.37773 | 8815 ft | 324 kts | 279° |
| 2026-04-21 00:40 | -2.61302 | -44.39917 | 9894 ft | 335 kts | 279° |
| 2026-04-21 00:41 | -2.60978 | -44.41828 | 10868 ft | 342 kts | 279° |
| 2026-04-21 00:41 | -2.60585 | -44.44149 | 12062 ft | 349 kts | 279° |
| 2026-04-21 00:41 | -2.60177 | -44.46560 | 13241 ft | 354 kts | 279° |
| 2026-04-21 00:41 | -2.59769 | -44.48970 | 14333 ft | 360 kts | 279° |
| 2026-04-21 00:42 | -2.59353 | -44.51433 | 15381 ft | 366 kts | 279° |
| 2026-04-21 00:42 | -2.58925 | -44.53963 | 16419 ft | 371 kts | 279° |
| 2026-04-21 00:42 | -2.58497 | -44.56500 | 17376 ft | 377 kts | 279° |
| 2026-04-21 00:42 | -2.58058 | -44.59101 | 18315 ft | 382 kts | 279° |
| 2026-04-21 00:43 | -2.57619 | -44.61699 | 19178 ft | 387 kts | 279° |
| 2026-04-21 00:43 | -2.57167 | -44.64375 | 20025 ft | 392 kts | 279° |
| 2026-04-21 00:43 | -2.56710 | -44.67083 | 20847 ft | 397 kts | 279° |
| 2026-04-21 00:43 | -2.56250 | -44.69812 | 21628 ft | 402 kts | 279° |
| 2026-04-21 00:44 | -2.55782 | -44.72583 | 22388 ft | 406 kts | 279° |
| 2026-04-21 00:44 | -2.55310 | -44.75374 | 23118 ft | 411 kts | 279° |
| 2026-04-21 00:44 | -2.54833 | -44.78199 | 23821 ft | 415 kts | 279° |
| 2026-04-21 00:45 | -2.53866 | -44.83925 | 25155 ft | 424 kts | 279° |
| 2026-04-21 00:45 | -2.53378 | -44.86812 | 25775 ft | 428 kts | 279° |
| 2026-04-21 00:45 | -2.52879 | -44.89768 | 26300 ft | 434 kts | 279° |
| 2026-04-21 00:45 | -2.52374 | -44.92757 | 26660 ft | 443 kts | 279° |
| 2026-04-21 00:46 | -2.51855 | -44.95828 | 27070 ft | 449 kts | 279° |
| 2026-04-21 00:46 | -2.51329 | -44.98938 | 27530 ft | 454 kts | 279° |
| 2026-04-21 00:46 | -2.50808 | -45.02024 | 27999 ft | 457 kts | 279° |
| 2026-04-21 00:46 | -2.50279 | -45.05154 | 28460 ft | 460 kts | 279° |
| 2026-04-21 00:47 | -2.49738 | -45.08352 | 28903 ft | 463 kts | 279° |
| 2026-04-21 00:47 | -2.49204 | -45.11511 | 29314 ft | 466 kts | 279° |
| 2026-04-21 00:47 | -2.48654 | -45.14767 | 29708 ft | 469 kts | 279° |
| 2026-04-21 00:47 | -2.48102 | -45.18029 | 30075 ft | 471 kts | 279° |
| 2026-04-21 00:48 | -2.47547 | -45.21317 | 30421 ft | 474 kts | 279° |
| 2026-04-21 00:48 | -2.46990 | -45.24606 | 30736 ft | 476 kts | 279° |
| 2026-04-21 00:48 | -2.46420 | -45.27980 | 31044 ft | 479 kts | 279° |
| 2026-04-21 00:48 | -2.45857 | -45.31307 | 31326 ft | 481 kts | 279° |
| 2026-04-21 00:49 | -2.45293 | -45.34645 | 31599 ft | 482 kts | 279° |
| 2026-04-21 00:49 | -2.44725 | -45.37997 | 31826 ft | 484 kts | 279° |
| 2026-04-21 00:49 | -2.44160 | -45.41339 | 32109 ft | 484 kts | 279° |
| 2026-04-21 00:49 | -2.43600 | -45.44648 | 32745 ft | 476 kts | 279° |
| 2026-04-21 00:50 | -2.43046 | -45.47915 | 33364 ft | 470 kts | 279° |
| 2026-04-21 00:50 | -2.42491 | -45.51193 | 33788 ft | 468 kts | 279° |
| 2026-04-21 00:50 | -2.41946 | -45.54414 | 34124 ft | 468 kts | 279° |
| 2026-04-21 00:50 | -2.41402 | -45.57624 | 34446 ft | 467 kts | 279° |
| 2026-04-21 00:51 | -2.40860 | -45.60825 | 34763 ft | 467 kts | 279° |
| 2026-04-21 00:51 | -2.40321 | -45.64006 | 35076 ft | 466 kts | 279° |
| 2026-04-21 00:51 | -2.39781 | -45.67195 | 35386 ft | 466 kts | 279° |
| 2026-04-21 00:51 | -2.39228 | -45.70459 | 35697 ft | 465 kts | 279° |
| 2026-04-21 00:52 | -2.38687 | -45.73647 | 35993 ft | 465 kts | 279° |
| 2026-04-21 00:52 | -2.38145 | -45.76847 | 36269 ft | 464 kts | 279° |
| 2026-04-21 00:52 | -2.37607 | -45.80019 | 36523 ft | 464 kts | 279° |
| 2026-04-21 00:52 | -2.37071 | -45.83184 | 36760 ft | 464 kts | 279° |
| 2026-04-21 00:53 | -2.36534 | -45.86347 | 36998 ft | 464 kts | 279° |
| 2026-04-21 00:53 | -2.35994 | -45.89533 | 37213 ft | 464 kts | 279° |
| 2026-04-21 00:53 | -2.35454 | -45.92713 | 37440 ft | 464 kts | 279° |
| 2026-04-21 00:53 | -2.34918 | -45.95872 | 37780 ft | 461 kts | 279° |
| 2026-04-21 00:54 | -2.34386 | -45.99012 | 38040 ft | 460 kts | 279° |
| 2026-04-21 00:54 | -2.33847 | -46.02187 | 38058 ft | 464 kts | 279° |
| 2026-04-21 00:54 | -2.32757 | -46.08606 | 38060 ft | 472 kts | 279° |
| 2026-04-21 00:55 | -2.31648 | -46.15140 | 38062 ft | 480 kts | 279° |
| 2026-04-21 00:55 | -2.30522 | -46.21766 | 38064 ft | 487 kts | 279° |
| 2026-04-21 00:56 | -2.29381 | -46.28480 | 38063 ft | 490 kts | 279° |
| 2026-04-21 00:56 | -2.28232 | -46.35245 | 38062 ft | 490 kts | 279° |
| 2026-04-21 00:57 | -2.27093 | -46.41941 | 38072 ft | 489 kts | 279° |
| 2026-04-21 00:57 | -2.25952 | -46.48652 | 38060 ft | 488 kts | 279° |
| 2026-04-21 00:58 | -2.24817 | -46.55324 | 38061 ft | 488 kts | 279° |
| 2026-04-21 00:58 | -2.23669 | -46.62069 | 38061 ft | 488 kts | 279° |
| 2026-04-21 00:59 | -2.22536 | -46.68729 | 38062 ft | 479 kts | 279° |
| 2026-04-21 00:59 | -2.21463 | -46.75029 | 38018 ft | 469 kts | 279° |
| 2026-04-21 01:00 | -2.20910 | -46.78276 | 37572 ft | 475 kts | 279° |
| 2026-04-21 01:00 | -2.20360 | -46.81508 | 36988 ft | 474 kts | 279° |
| 2026-04-21 01:00 | -2.19810 | -46.84734 | 36392 ft | 472 kts | 279° |
| 2026-04-21 01:00 | -2.19256 | -46.87989 | 35767 ft | 472 kts | 279° |
| 2026-04-21 01:01 | -2.18710 | -46.91192 | 35151 ft | 472 kts | 279° |
| 2026-04-21 01:01 | -2.18155 | -46.94445 | 34527 ft | 472 kts | 279° |
| 2026-04-21 01:01 | -2.17609 | -46.97653 | 33884 ft | 473 kts | 279° |
| 2026-04-21 01:01 | -2.17059 | -47.00877 | 33285 ft | 473 kts | 279° |
| 2026-04-21 01:02 | -2.16507 | -47.04115 | 32646 ft | 471 kts | 279° |
| 2026-04-21 01:02 | -2.15960 | -47.07324 | 32030 ft | 467 kts | 279° |
| 2026-04-21 01:02 | -2.15416 | -47.10511 | 31410 ft | 462 kts | 279° |
| 2026-04-21 01:02 | -2.14880 | -47.13652 | 30802 ft | 457 kts | 279° |
| 2026-04-21 01:03 | -2.14357 | -47.16724 | 30207 ft | 452 kts | 279° |
| 2026-04-21 01:03 | -2.13828 | -47.19820 | 29614 ft | 448 kts | 279° |
| 2026-04-21 01:03 | -2.13305 | -47.22881 | 29003 ft | 443 kts | 279° |
| 2026-04-21 01:03 | -2.12795 | -47.25872 | 28449 ft | 439 kts | 279° |
| 2026-04-21 01:04 | -2.12281 | -47.28885 | 27836 ft | 436 kts | 279° |
| 2026-04-21 01:04 | -2.11776 | -47.31842 | 27278 ft | 432 kts | 279° |
| 2026-04-21 01:04 | -2.11278 | -47.34761 | 26710 ft | 428 kts | 279° |
| 2026-04-21 01:04 | -2.10777 | -47.37698 | 26146 ft | 425 kts | 279° |
| 2026-04-21 01:05 | -2.10283 | -47.40592 | 25579 ft | 429 kts | 279° |
| 2026-04-21 01:05 | -2.09775 | -47.43567 | 25014 ft | 434 kts | 279° |
| 2026-04-21 01:05 | -2.09274 | -47.46498 | 24438 ft | 434 kts | 279° |
| 2026-04-21 01:05 | -2.08767 | -47.49468 | 23863 ft | 431 kts | 279° |
| 2026-04-21 01:06 | -2.08267 | -47.52395 | 23301 ft | 427 kts | 279° |
| 2026-04-21 01:06 | -2.07768 | -47.55317 | 22720 ft | 423 kts | 279° |
| 2026-04-21 01:06 | -2.07193 | -47.58145 | 22180 ft | 419 kts | 287° |
| 2026-04-21 01:06 | -2.06094 | -47.60847 | 21609 ft | 415 kts | 294° |
| 2026-04-21 01:07 | -2.04902 | -47.63467 | 21079 ft | 412 kts | 294° |
| 2026-04-21 01:07 | -2.03737 | -47.66044 | 20517 ft | 409 kts | 294° |
| 2026-04-21 01:07 | -2.02561 | -47.68645 | 19982 ft | 406 kts | 294° |
| 2026-04-21 01:07 | -2.01417 | -47.71180 | 19450 ft | 403 kts | 294° |
| 2026-04-21 01:08 | -2.00257 | -47.73748 | 18908 ft | 400 kts | 294° |
| 2026-04-21 01:08 | -1.99125 | -47.76253 | 18389 ft | 396 kts | 294° |
| 2026-04-21 01:08 | -1.97998 | -47.78751 | 17866 ft | 394 kts | 294° |
| 2026-04-21 01:08 | -1.96880 | -47.81227 | 17346 ft | 391 kts | 294° |
| 2026-04-21 01:09 | -1.95769 | -47.83688 | 16833 ft | 387 kts | 294° |
| 2026-04-21 01:09 | -1.94674 | -47.86115 | 16323 ft | 385 kts | 294° |
| 2026-04-21 01:09 | -1.93573 | -47.88555 | 15815 ft | 382 kts | 294° |
| 2026-04-21 01:09 | -1.92495 | -47.90945 | 15314 ft | 379 kts | 294° |
| 2026-04-21 01:10 | -1.91406 | -47.93359 | 14809 ft | 377 kts | 294° |
| 2026-04-21 01:10 | -1.90332 | -47.95739 | 14311 ft | 374 kts | 294° |
| 2026-04-21 01:10 | -1.89270 | -47.98095 | 13818 ft | 371 kts | 294° |
| 2026-04-21 01:10 | -1.88214 | -48.00437 | 13329 ft | 362 kts | 294° |
| 2026-04-21 01:11 | -1.87184 | -48.02718 | 12852 ft | 353 kts | 294° |
| 2026-04-21 01:11 | -1.86187 | -48.04926 | 12388 ft | 345 kts | 294° |
| 2026-04-21 01:11 | -1.85220 | -48.07066 | 11940 ft | 338 kts | 294° |
| 2026-04-21 01:11 | -1.84265 | -48.09182 | 11496 ft | 331 kts | 294° |
| 2026-04-21 01:12 | -1.83327 | -48.11260 | 11101 ft | 323 kts | 294° |
| 2026-04-21 01:12 | -1.82410 | -48.13307 | 10631 ft | 319 kts | 294° |
| 2026-04-21 01:12 | -1.81522 | -48.15298 | 10225 ft | 314 kts | 294° |
| 2026-04-21 01:12 | -1.80626 | -48.17281 | 9808 ft | 309 kts | 294° |
| 2026-04-21 01:13 | -1.79749 | -48.19214 | 9399 ft | 305 kts | 294° |
| 2026-04-21 01:13 | -1.78884 | -48.21144 | 8988 ft | 301 kts | 295° |
| 2026-04-21 01:13 | -1.78031 | -48.23037 | 8640 ft | 295 kts | 294° |
| 2026-04-21 01:13 | -1.77193 | -48.24874 | 8248 ft | 291 kts | 294° |
| 2026-04-21 01:14 | -1.76365 | -48.26719 | 7870 ft | 287 kts | 294° |
| 2026-04-21 01:14 | -1.75551 | -48.28521 | 7482 ft | 284 kts | 295° |
| 2026-04-21 01:14 | -1.74728 | -48.30308 | 7111 ft | 280 kts | 297° |
| 2026-04-21 01:14 | -1.73791 | -48.31976 | 6781 ft | 274 kts | 301° |
| 2026-04-21 01:15 | -1.72840 | -48.33595 | 6673 ft | 270 kts | 301° |
| 2026-04-21 01:15 | -1.71878 | -48.35254 | 6646 ft | 275 kts | 300° |
| 2026-04-21 01:15 | -1.70917 | -48.36919 | 6447 ft | 277 kts | 299° |
| 2026-04-21 01:15 | -1.69954 | -48.38576 | 6296 ft | 275 kts | 301° |
| 2026-04-21 01:16 | -1.68987 | -48.40209 | 6136 ft | 274 kts | 300° |
| 2026-04-21 01:16 | -1.68023 | -48.41871 | 5981 ft | 274 kts | 300° |
| 2026-04-21 01:16 | -1.67070 | -48.43510 | 5819 ft | 273 kts | 301° |
| 2026-04-21 01:16 | -1.66118 | -48.45158 | 5657 ft | 273 kts | 300° |
| 2026-04-21 01:17 | -1.65175 | -48.46800 | 5500 ft | 272 kts | 300° |
| 2026-04-21 01:17 | -1.64228 | -48.48428 | 5341 ft | 271 kts | 301° |
| 2026-04-21 01:17 | -1.63283 | -48.50055 | 5186 ft | 270 kts | 300° |
| 2026-04-21 01:17 | -1.62322 | -48.51676 | 5018 ft | 270 kts | 301° |
| 2026-04-21 01:18 | -1.61423 | -48.53189 | 4887 ft | 266 kts | 301° |
| 2026-04-21 01:18 | -1.60589 | -48.54602 | 4759 ft | 254 kts | 300° |
| 2026-04-21 01:18 | -1.59573 | -48.56004 | 4615 ft | 241 kts | 317° |
| 2026-04-21 01:18 | -1.58188 | -48.56903 | 4374 ft | 234 kts | 336° |
| 2026-04-21 01:19 | -1.56708 | -48.57574 | 3990 ft | 235 kts | 336° |
| 2026-04-21 01:19 | -1.55208 | -48.58248 | 3717 ft | 231 kts | 337° |
| 2026-04-21 01:19 | -1.53752 | -48.58904 | 3416 ft | 229 kts | 336° |
| 2026-04-21 01:19 | -1.52302 | -48.59528 | 3221 ft | 218 kts | 343° |
| 2026-04-21 01:20 | -1.50907 | -48.59645 | 3223 ft | 190 kts | 9° |
| 2026-04-21 01:20 | -1.49711 | -48.59250 | 3110 ft | 172 kts | 30° |
| 2026-04-21 01:20 | -1.48772 | -48.58560 | 2831 ft | 165 kts | 44° |
| 2026-04-21 01:20 | -1.47956 | -48.57752 | 2584 ft | 173 kts | 48° |
| 2026-04-21 01:21 | -1.47063 | -48.56850 | 2334 ft | 186 kts | 45° |
| 2026-04-21 01:21 | -1.46150 | -48.55926 | 2085 ft | 187 kts | 47° |
| 2026-04-21 01:21 | -1.45257 | -48.55019 | 1844 ft | 177 kts | 46° |
| 2026-04-21 01:21 | -1.44418 | -48.54177 | 1614 ft | 169 kts | 47° |
| 2026-04-21 01:22 | -1.43614 | -48.53369 | 1415 ft | 157 kts | 47° |
| 2026-04-21 01:22 | -1.42876 | -48.52603 | 1216 ft | 148 kts | 48° |
| 2026-04-21 01:22 | -1.42148 | -48.51878 | 1007 ft | 146 kts | 46° |
| 2026-04-21 01:22 | -1.41444 | -48.51170 | 830 ft | 143 kts | 47° |
| 2026-04-21 01:23 | -1.40747 | -48.50471 | 642 ft | 139 kts | 46° |
| 2026-04-21 01:23 | -1.40078 | -48.49790 | 450 ft | 136 kts | 48° |
| 2026-04-21 01:23 | -1.39418 | -48.49108 | 260 ft | 134 kts | 47° |
| 2026-04-21 01:23 | -1.38771 | -48.48461 | 96 ft | 131 kts | 47° |
| 2026-04-21 01:24 | -1.38199 | -48.47881 | 61 ft | 87 kts | 44° |
| 2026-04-21 01:24 | -1.37937 | -48.47617 | 61 ft | 11 kts | 46° |
| 2026-04-21 01:24 | -1.37983 | -48.47606 | 61 ft | 12 kts | 195° |
| 2026-04-21 01:24 | -1.38086 | -48.47628 | 61 ft | 17 kts | 185° |
| 2026-04-21 01:25 | -1.38224 | -48.47640 | 61 ft | 21 kts | 184° |
| 2026-04-21 01:25 | -1.38357 | -48.47651 | 61 ft | 10 kts | 184° |
| 2026-04-21 01:25 | -1.38400 | -48.47615 | 61 ft | 10 kts | 95° |
| 2026-04-21 01:25 | -1.38408 | -48.47542 | 61 ft | 6 kts | 106° |
| 2026-04-21 01:26 | -1.38462 | -48.47530 | 61 ft | 10 kts | 186° |
| 2026-04-21 01:26 | -1.38493 | -48.47511 | 61 ft | 5 kts | 93° |
| 2026-04-21 01:26 | -1.38494 | -48.47502 | 61 ft | 0 kts | 95° |